createdAt,value
2023-08-24T00:00:39.823Z,81.85
2023-08-24T00:05:41.909Z,82.39
2023-08-24T00:10:45.275Z,82.45
2023-08-24T00:15:47.197Z,81.25
2023-08-24T00:20:49.959Z,82.94
2023-08-24T00:25:51.720Z,83.73
2023-08-24T00:30:53.431Z,83.14
2023-08-24T00:35:55.142Z,84.97
2023-08-24T00:40:57.360Z,84.21
2023-08-24T00:46:01.990Z,84.23
2023-08-24T00:51:04.149Z,85.86
2023-08-24T00:56:07.673Z,87.11
2023-08-24T01:01:09.580Z,85.06
2023-08-24T01:06:11.330Z,87.67
2023-08-24T01:11:16.544Z,89.24
2023-08-24T01:16:22.172Z,90.21
2023-08-24T01:21:24.851Z,89.30
2023-08-24T01:26:27.841Z,89.04
2023-08-24T01:31:29.581Z,89.58
2023-08-24T01:36:31.771Z,89.42
2023-08-24T01:41:44.240Z,89.06
2023-08-24T01:46:48.010Z,88.50
2023-08-24T01:51:50.639Z,89.71
2023-08-24T01:56:52.368Z,90.43
2023-08-24T02:01:54.127Z,88.29
2023-08-24T02:06:55.868Z,89.55
2023-08-24T02:11:57.536Z,92.18
2023-08-24T02:16:59.329Z,93.15
2023-08-24T02:22:01.068Z,91.76
2023-08-24T02:27:02.926Z,90.64
2023-08-24T02:32:05.029Z,90.15
2023-08-24T02:37:06.970Z,91.31
2023-08-24T02:42:08.678Z,91.66
2023-08-24T02:47:10.343Z,90.30
2023-08-24T02:52:12.016Z,92.13
2023-08-24T02:57:13.731Z,91.88
2023-08-24T03:02:15.815Z,91.59
2023-08-24T03:07:17.537Z,90.88
2023-08-24T03:12:19.298Z,88.46
2023-08-24T03:17:22.122Z,89.63
2023-08-24T03:22:23.937Z,89.89
2023-08-24T03:27:25.642Z,91.64
2023-08-24T03:32:27.397Z,89.76
2023-08-24T03:37:29.532Z,88.82
2023-08-24T03:42:31.525Z,90.42
2023-08-24T03:47:33.717Z,92.17
2023-08-24T03:52:35.435Z,92.88
2023-08-24T03:57:39.112Z,93.31
2023-08-24T04:02:43.879Z,92.20
2023-08-24T04:07:52.444Z,91.80
2023-08-24T04:12:54.562Z,91.59
2023-08-24T04:17:56.432Z,92.83
2023-08-24T04:22:58.195Z,92.69
2023-08-24T04:27:59.862Z,92.30
2023-08-24T04:33:01.546Z,92.95
2023-08-24T04:38:03.486Z,91.71
2023-08-24T04:43:05.128Z,89.71
2023-08-24T04:48:07.055Z,90.77
2023-08-24T04:53:08.767Z,91.59
2023-08-24T04:58:11.987Z,91.93
2023-08-24T05:03:14.725Z,91.20
2023-08-24T05:08:16.483Z,90.80
2023-08-24T05:13:18.385Z,90.39
2023-08-24T05:18:20.096Z,90.33
2023-08-24T05:23:21.784Z,89.42
2023-08-24T05:28:23.495Z,86.42
2023-08-24T05:33:25.828Z,86.90
2023-08-24T05:38:27.717Z,85.46
2023-08-24T05:43:29.424Z,83.69
2023-08-24T05:48:31.102Z,84.42
2023-08-24T05:53:32.789Z,82.28
2023-08-24T05:58:35.050Z,81.92
2023-08-24T06:03:36.827Z,80.23
2023-08-24T06:08:38.698Z,75.15
2023-08-24T06:13:40.378Z,74.32
2023-08-24T06:18:42.102Z,70.65
2023-08-24T06:23:45.347Z,70.26
2023-08-24T06:28:47.119Z,68.79
2023-08-24T06:33:50.019Z,67.86
2023-08-24T06:38:52.236Z,64.80
2023-08-24T06:43:55.024Z,66.09
2023-08-24T06:48:56.745Z,65.29
2023-08-24T06:53:58.466Z,62.82
2023-08-24T06:59:00.242Z,64.91
2023-08-24T07:04:01.978Z,62.38
2023-08-24T07:09:07.579Z,62.62
2023-08-24T07:14:09.286Z,62.70
2023-08-24T07:19:11.325Z,61.67
2023-08-24T07:24:13.060Z,62.25
2023-08-24T07:29:14.741Z,60.11
2023-08-24T07:34:16.969Z,60.48
2023-08-24T07:39:18.635Z,60.13
2023-08-24T07:44:20.371Z,61.47
2023-08-24T07:49:22.113Z,59.83
2023-08-24T07:54:23.814Z,58.25
2023-08-24T07:59:25.514Z,57.55
2023-08-24T08:04:27.384Z,59.47
2023-08-24T08:09:29.123Z,57.71
2023-08-24T08:14:31.079Z,55.32
2023-08-24T08:19:32.803Z,57.03
2023-08-24T08:24:34.646Z,56.34
2023-08-24T08:29:36.403Z,55.47
2023-08-24T08:34:38.094Z,56.34
2023-08-24T08:39:39.887Z,51.71
2023-08-24T08:44:48.240Z,51.56
2023-08-24T08:49:53.559Z,51.72
2023-08-24T08:54:55.376Z,49.05
2023-08-24T08:59:59.895Z,48.15
2023-08-24T09:05:01.877Z,48.59
2023-08-24T09:10:08.316Z,47.50
2023-08-24T09:15:10.740Z,46.76
2023-08-24T09:20:12.909Z,44.74
2023-08-24T09:25:14.690Z,43.30
2023-08-24T09:30:19.882Z,43.90
2023-08-24T09:35:22.150Z,41.55
2023-08-24T09:40:27.390Z,40.87
2023-08-24T09:45:28.918Z,39.33
2023-08-24T09:50:30.858Z,39.05
2023-08-24T09:55:37.722Z,38.15
2023-08-24T10:00:39.542Z,37.56
2023-08-24T10:05:51.968Z,37.13
2023-08-24T10:10:59.778Z,37.13
2023-08-24T10:16:02.135Z,36.93
2023-08-24T10:21:04.750Z,37.87
2023-08-24T10:26:09.111Z,37.11
2023-08-24T10:31:11.380Z,37.73
2023-08-24T10:36:15.427Z,37.25
2023-08-24T10:41:17.144Z,36.84
2023-08-24T10:46:19.207Z,37.65
2023-08-24T10:51:27.853Z,35.52
2023-08-24T10:56:37.489Z,34.82
2023-08-24T11:01:43.486Z,36.16
2023-08-24T11:07:00.197Z,36.26
2023-08-24T11:12:04.666Z,38.37
2023-08-24T11:17:22.730Z,37.78
2023-08-24T11:22:26.404Z,37.36
2023-08-24T11:27:28.652Z,37.45
2023-08-24T11:32:30.544Z,36.70
2023-08-24T11:37:32.519Z,36.74
2023-08-24T11:42:37.676Z,36.31
2023-08-24T11:47:39.767Z,35.78
2023-08-24T11:52:45.302Z,35.53
2023-08-24T11:57:47.053Z,36.96
2023-08-24T12:02:50.019Z,38.79
2023-08-24T12:07:55.974Z,36.78
2023-08-24T12:13:09.294Z,37.44
2023-08-24T12:18:13.184Z,37.87
2023-08-24T12:23:15.148Z,38.29
2023-08-24T12:28:17.452Z,36.73
2023-08-24T12:33:27.154Z,35.85
2023-08-24T12:38:29.066Z,38.47
2023-08-24T12:43:30.828Z,36.71
2023-08-24T12:48:32.650Z,38.49
2023-08-24T12:53:36.645Z,38.24
2023-08-24T12:58:39.299Z,36.29
2023-08-24T13:03:41.020Z,36.08
2023-08-24T13:08:42.711Z,35.53
2023-08-24T13:13:46.730Z,35.23
2023-08-24T13:18:48.955Z,35.03
2023-08-24T13:23:50.745Z,36.47
2023-08-24T13:28:53.088Z,36.81
2023-08-24T13:33:54.796Z,35.87
2023-08-24T13:38:56.544Z,37.61
2023-08-24T13:43:58.511Z,38.90
2023-08-24T13:49:00.279Z,38.11
2023-08-24T13:54:02.121Z,38.26
2023-08-24T13:59:06.921Z,38.86
2023-08-24T14:04:09.157Z,38.29
2023-08-24T14:09:11.034Z,39.66
2023-08-24T14:14:12.749Z,39.28
2023-08-24T14:19:14.504Z,39.26
2023-08-24T14:24:19.702Z,39.33
2023-08-24T14:29:21.808Z,39.76
2023-08-24T14:34:23.509Z,40.08
2023-08-24T14:39:25.320Z,39.91
2023-08-24T14:44:27.026Z,40.31
2023-08-24T14:49:29.518Z,40.04
2023-08-24T14:54:31.198Z,41.46
2023-08-24T14:59:33.288Z,40.04
2023-08-24T15:04:34.956Z,40.54
2023-08-24T15:09:36.637Z,40.76
2023-08-24T15:14:38.590Z,41.00
2023-08-24T15:19:40.333Z,40.81
2023-08-24T15:24:43.347Z,40.59
2023-08-24T15:29:45.043Z,41.44
2023-08-24T15:34:47.042Z,40.74
2023-08-24T15:39:48.797Z,40.97
2023-08-24T15:44:50.612Z,40.35
2023-08-24T15:49:52.354Z,39.69
2023-08-24T15:54:54.245Z,41.28
2023-08-24T15:59:56.068Z,41.40
2023-08-24T16:04:57.864Z,41.43
2023-08-24T16:09:59.760Z,42.01
2023-08-24T16:15:02.071Z,41.23
2023-08-24T16:20:08.377Z,40.76
2023-08-24T16:25:10.630Z,41.44
2023-08-24T16:30:12.647Z,42.12
2023-08-24T16:35:15.179Z,41.13
2023-08-24T16:40:17.316Z,42.25
2023-08-24T16:45:19.030Z,43.77
2023-08-24T16:50:20.838Z,43.60
2023-08-24T16:55:22.598Z,44.29
2023-08-24T17:00:24.902Z,44.68
2023-08-24T17:05:26.660Z,43.41
2023-08-24T17:10:28.383Z,44.46
2023-08-24T17:15:30.320Z,44.19
2023-08-24T17:20:36.485Z,44.58
2023-08-24T17:25:46.162Z,45.17
2023-08-24T17:30:48.756Z,46.14
2023-08-24T17:35:51.355Z,46.51
2023-08-24T17:41:07.666Z,47.76
2023-08-24T17:46:09.531Z,47.83
2023-08-24T17:51:11.408Z,48.31
2023-08-24T17:56:13.155Z,50.98
2023-08-24T18:01:15.050Z,53.96
2023-08-24T18:06:16.810Z,54.96
2023-08-24T18:11:18.910Z,57.17
2023-08-24T18:16:20.701Z,57.71
2023-08-24T18:21:22.471Z,57.48
2023-08-24T18:26:24.157Z,58.95
2023-08-24T18:31:27.037Z,59.85
2023-08-24T18:36:28.818Z,59.86
2023-08-24T18:41:30.598Z,61.55
2023-08-24T18:46:32.394Z,62.84
2023-08-24T18:51:34.117Z,63.93
2023-08-24T18:56:35.898Z,63.44
2023-08-24T19:01:39.400Z,63.00
2023-08-24T19:06:47.142Z,65.07
2023-08-24T19:11:49.568Z,65.20
2023-08-24T19:16:51.586Z,66.28
2023-08-24T19:21:53.285Z,66.83
2023-08-24T19:26:55.031Z,67.04
2023-08-24T19:31:56.939Z,67.13
2023-08-24T19:36:58.717Z,67.79
2023-08-24T19:42:00.605Z,68.15
2023-08-24T19:47:02.343Z,67.82
2023-08-24T19:52:04.286Z,69.90
2023-08-24T19:57:09.389Z,68.77
2023-08-24T20:02:11.176Z,68.07
2023-08-24T20:07:12.895Z,69.24
2023-08-24T20:12:14.568Z,68.79
2023-08-24T20:17:19.666Z,69.16
2023-08-24T20:22:21.390Z,70.08
2023-08-24T20:27:24.040Z,70.28
2023-08-24T20:32:25.778Z,71.04
2023-08-24T20:37:27.513Z,70.54
2023-08-24T20:42:29.773Z,69.85
2023-08-24T20:47:31.567Z,69.53
2023-08-24T20:52:33.466Z,70.07
2023-08-24T20:57:35.436Z,70.37
2023-08-24T21:02:37.361Z,71.20
2023-08-24T21:07:39.151Z,70.91
2023-08-24T21:12:40.962Z,71.81
2023-08-24T21:17:42.779Z,72.21
2023-08-24T21:22:44.559Z,72.81
2023-08-24T21:27:46.825Z,71.54
2023-08-24T21:32:48.655Z,72.20
2023-08-24T21:37:50.467Z,71.80
2023-08-24T21:42:52.238Z,71.40
2023-08-24T21:47:54.200Z,71.54
2023-08-24T21:52:56.136Z,71.49
2023-08-24T21:57:58.930Z,72.42
2023-08-24T22:03:01.080Z,73.11
2023-08-24T22:08:06.584Z,73.67
2023-08-24T22:13:08.277Z,73.76
2023-08-24T22:18:10.049Z,73.40
2023-08-24T22:23:11.980Z,72.58
2023-08-24T22:28:14.222Z,72.24
2023-08-24T22:33:15.950Z,73.10
2023-08-24T22:38:17.675Z,73.44
2023-08-24T22:43:19.417Z,73.42
2023-08-24T22:48:21.105Z,72.70
2023-08-24T22:53:22.839Z,69.75
2023-08-24T22:58:24.695Z,68.51
2023-08-24T23:03:26.458Z,66.99
2023-08-24T23:08:28.264Z,67.58
2023-08-24T23:13:30.080Z,69.79
2023-08-24T23:18:32.883Z,68.13
2023-08-24T23:23:34.621Z,69.42
2023-08-24T23:28:36.344Z,68.52
2023-08-24T23:33:38.000Z,68.63
2023-08-24T23:38:39.825Z,68.56
2023-08-24T23:43:41.548Z,69.23
2023-08-24T23:48:43.234Z,67.79
2023-08-24T23:53:44.994Z,67.65
2023-08-24T23:58:46.742Z,67.49
